Buttonwillow, CA (93206)

8:40 PM PST on February 06, 2016 (GMT -0800)
APRSWXNET | | Change Station
CLOSE
Current Station
Personal Weather Station
Location: Buttonwillow, CA
Elevation: 285 ft
Nearby Weather Stations

Elev 285 ft 35.40 °N, 119.47 °W | Updated 21 minutes ago

Clear
Clear
50 °F
Feels Like 50 °F
N
3
Wind Variable Wind from NNE
Gusts 5.0 mph

Today
High -- | Low -- °F
--% Chance of Precip.
Yesterday
High -- | Low -- °F
Precip. -- in
Pressure 30.32 in
Visibility 5.0 miles
Clouds Clear
Dew Point 44 °F
Humidity 79%
Rainfall in
Snow Depth Not available.
6:53 AM 5:30 PM
Waning Crescent, 3% visible
METAR KBFL 070354Z 00000KT 5SM HZ CLR 10/05 A3032 RMK AO2 SLP266 T01000050
Pressure 30.32 in
Visibility 5.0 miles
Clouds Clear
Dew Point 44 °F
Humidity 79%
Rainfall in
Snow Depth Not available.
6:53 AM 5:30 PM
Waning Crescent, 3% visible
METAR KBFL 070354Z 00000KT 5SM HZ CLR 10/05 A3032 RMK AO2 SLP266 T01000050

10-Day Weather Forecast

Almanac

Astronomy

Feb. 06, 2016 Rise Set
Actual Time
Civil Twilight
Nautical Twilight
Astronomical Twilight
Moon
Length of Visible Light
Length of Day
Tomorrow will be .
, % of the Moon is Illuminated

Today's Extremes

State Highs State Lows

Community

WunderPhotos

Upload Photos

1,891,157 photos uploaded!

WunderBlog® & News

Nearby

Air Quality

  Air Quality AQ Index Pollutant
Not available.

Snow Depth

Station Depth Elevation

Earthquake Activity

City Distance Mag. Time & Date
Minimum magnitude displayed is 2.5.

Coastal Water Temperatures

Place Temperature

Stations

Nearby Weather Stations

Station Location Temp. Windchill Dew Point Humidity Wind Precip. Elev Updated Type
                   

Watches & Warnings

There are currently no watches in effect.